KSLE

McNary Field Airport

Salem, Oregon, USA
KSLE 210520Z 2106/2206 21005KT P6SM FEW060 BKN100 FM210900 25007KT P6SM BKN050 OVC090 FM211000 19010KT P6SM -RA SCT030 OVC050 FM211200 24007KT P6SM VCSH SCT025 BKN050 FM211800 36005KT P6SM SCT040
Issued Valid From Valid To
Apr-21 @ 05:20 UTC
(4 hours ago)
Apr-21 @ 06:00 UTC
(4 hours ago)
Apr-22 @ 06:00 UTC
(in 20 hours)
Expired Click to View Apr-21 @ 06:00 to Apr-21 @ 09:00
KSLE 210520Z 2106/2206 21005KT P6SM FEW060 BKN100
Wind Visibility Clouds
210° at 5 knots Greater than 6 miles
  • Few at 6,000' AGL
  • Broken at 10,000' AGL
From Apr-21 @ 09:00 to Apr-21 @ 10:00
FM210900 25007KT P6SM BKN050 OVC090
Wind Visibility Clouds
250° at 7 knots Greater than 6 miles
  • Broken at 5,000' AGL
  • Overcast at 9,000' AGL
From Apr-21 @ 10:00 to Apr-21 @ 12:00
FM211000 19010KT P6SM -RA SCT030 OVC050
Wind Visibility Clouds Conditions
190° at 10 knots Greater than 6 miles
  • Scattered at 3,000' AGL
  • Overcast at 5,000' AGL
  • Light Rain
From Apr-21 @ 12:00 to Apr-21 @ 18:00
FM211200 24007KT P6SM VCSH SCT025 BKN050
Wind Visibility Clouds
240° at 7 knots Greater than 6 miles
  • Scattered at 2,500' AGL
  • Broken at 5,000' AGL
From Apr-21 @ 18:00 to Apr-22 @ 06:00
FM211800 36005KT P6SM SCT040
Wind Visibility Clouds
360° at 5 knots Greater than 6 miles
  • Scattered at 4,000' AGL
KSLE 210520Z 2106/2206 21005KT P6SM FEW060 BKN100 FM210900 25007KT P6SM BKN050 OVC090 FM211000 19010KT P6SM -RA SCT030 OVC050 FM211200 24007KT P6SM VCSH SCT025 BKN050 FM211800 36005KT P6SM SCT040
Issued Apr-21 @ 05:20 UTC
(4 hours ago)
Valid From Apr-21 @ 06:00 UTC
(4 hours ago)
Valid To Apr-22 @ 06:00 UTC
(in 20 hours)
Apr-21 @ 06:00 - Apr-21 @ 09:00
Wind Visibility
210° at 5 knots Greater than 6 miles
Clouds
  • Few at 6,000' AGL
  • Broken at 10,000' AGL
From Apr-21 @ 09:00 - Apr-21 @ 10:00
Wind Visibility
250° at 7 knots Greater than 6 miles
Clouds
  • Broken at 5,000' AGL
  • Overcast at 9,000' AGL
From Apr-21 @ 10:00 - Apr-21 @ 12:00
Wind Visibility
190° at 10 knots Greater than 6 miles
Clouds
  • Scattered at 3,000' AGL
  • Overcast at 5,000' AGL
Conditions
  • Light Rain
From Apr-21 @ 12:00 - Apr-21 @ 18:00
Wind Visibility
240° at 7 knots Greater than 6 miles
Clouds
  • Scattered at 2,500' AGL
  • Broken at 5,000' AGL
From Apr-21 @ 18:00 - Apr-22 @ 06:00
Wind Visibility
360° at 5 knots Greater than 6 miles
Clouds
  • Scattered at 4,000' AGL